Horley, United Kingdom
Current Conditions -  °F | °C
As of 2:50 AM on Sunday 26 Oct 2014 (Local Time) from EGKK Reporting Station
Broken Clouds Broken Clouds  
Wind Chill: 54°   Ceiling: 3200
Heat Index: 54°   Visibility: 6mi
Dew Point: 46°   Wind: 5mph
Humidity: 77%   Direction: 210°SSW
Pressure: 30.18"   Gusts: NA
Location:  51.17°N, 0.18°W
Report Text: EGKK 260150Z 21004KT 9999 BKN032 12/08 Q1022
Loading
Personal Weather Stations






























Interactive Weather Map
Tropical Storm Tracking
New forecast layout! Learn more

10-Day Weather Forecast

Advertisements
Track Severe Weather on mobile